Station: Glen Innes Airport  

  Atmospheric Gas Attenuation - ITU Rec 676-11   ----------------- dB/100km -----------------
Date Time Temp RH % AH g/m3 Dew Point Wind Direction Speed kph Gust kph Barometer mB Rainfall Since 9am 24GHz 47GHz 76GHz 122GHz 134GHz 241GHz
08/05 12:30 16.7 33 4.69 0.4 22 32 1019.4 0 11.2 19.6 24.6 63.8 49.0 165.3
08/05 12:20 16.3 35 4.86 0.8 22 28 1019.4 0 11.6 19.9 25.3 65.6 51.1 172.7
08/05 12:10 15.9 35 4.74 0.5 24 28 1019.5 0 11.3 19.8 25.0 64.9 50.0 168.9
08/05 12:00 15.3 36 4.7 0.3 24 33 1019.5 0 11.3 19.9 25.1 65.0 49.9 168.6
08/05 11:50 14.6 36 4.5 -0.3 19 20 1019.8 0 10.9 19.8 24.6 63.8 48.1 162.1
08/05 11:40 15.2 38 4.93 1 19 20 1020 0 11.8 20.3 25.9 67.2 52.6 177.9
08/05 11:30 14.3 38 4.67 0.2 17 28 1020.1 0 11.2 20.1 25.3 65.6 50.2 169.5
08/05 11:20 14 37 4.46 -0.4 15 17 1020.1 0 10.8 19.9 24.7 63.9 48.1 161.8
08/05 11:10 14.2 38 4.64 0.1 20 24 1020.2 0 11.2 20.1 25.2 65.4 50.0 168.5
08/05 11:00 13.4 38 4.42 -0.6 20 28 1020.3 0 10.7 20.0 24.7 64.0 48.0 161.4
08/05 10:50 13.5 39 4.56 -0.2 19 24 1020.6 0 11.0 20.1 25.2 65.2 49.5 166.8
08/05 10:40 13.4 39 4.53 -0.3 20 22 1020.7 0 11.0 20.1 25.1 65.0 49.2 165.9
08/05 10:30 13.1 38 4.34 -0.9 15 22 1020.6 0 10.6 19.9 24.5 63.5 47.3 158.9
08/05 10:20 13.3 39 4.51 -0.3 13 15 1020.8 0 10.9 20.1 25.1 64.9 49.1 165.3
08/05 10:10 12.3 39 4.24 -1.2 13 17 1020.8 0 10.4 20.0 24.4 63.2 46.6 156.4
08/05 10:00 12.8 40 4.48 -0.4 17 20 1020.6 0 10.9 20.2 25.1 65.0 49.0 165.0
08/05 09:50 12.4 41 4.48 -0.5 13 17 1020.7 0 10.9 20.3 25.2 65.4 49.3 165.9
08/05 09:40 11.6 42 4.37 -0.9 19 20 1020.7 0 10.7 20.3 25.1 65.0 48.5 163.0
08/05 09:30 11.2 43 4.36 -0.9 7 22 1020.6 0 10.7 20.4 25.2 65.2 48.6 163.4
08/05 09:20 10.3 45 4.31 -1.1 2 6 1020.6 0 10.6 20.5 25.3 65.5 48.6 163.1
08/05 09:10 9.3 47 4.23 -1.4 7 7 1020.7 0 10.5 20.6 25.3 65.5 48.3 161.8
08/05 09:00 7.9 51 4.19 -1.6 4 9 1020.7 0 10.4 20.9 25.6 66.3 48.6 163.0
08/05 08:50 7.5 55 4.4 -0.9 4 6 1020.6 0 10.9 21.3 26.5 68.7 51.4 172.7
08/05 08:40 6.2 57 4.19 -1.7 6 7 1020.5 0 10.5 21.2 26.1 67.7 49.7 166.4
08/05 08:30 5.3 61 4.23 -1.6 6 9 1020.4 0 10.6 21.5 26.6 68.9 50.7 170.0
08/05 08:20 4.7 64 4.27 -1.5 4 6 1020.6 0 10.7 21.7 26.9 69.8 51.6 173.1
08/05 08:10 4.2 64 4.13 -2 6 7 1020.5 0 10.4 21.6 26.5 68.8 50.2 167.9
08/05 08:00 2.9 69 4.08 -2.2 6 9 1020.3 0 10.3 21.9 26.8 69.4 50.4 168.4
08/05 07:50 2.2 74 4.17 -1.9 7 9 1020.5 0 10.5 22.2 27.4 71.0 52.0 174.0
08/05 07:40 1.5 74 3.98 -2.6 7 9 1020.3 0 10.2 22.0 26.8 69.6 50.0 166.8
08/05 07:30 1.2 77 4.06 -2.4 6 7 1020.1 0 10.3 22.2 27.3 70.7 51.2 171.1
08/05 07:20 0.4 82 4.09 -2.3 6 7 1020.2 0 10.4 22.5 27.7 71.8 52.1 174.2
08/05 07:10 -0.6 84 3.91 -3 6 7 1020.1 0 10.1 22.4 27.3 70.7 50.4 168.0
08/05 07:00 -1.3 86 3.81 -3.3 6 7 1020.1 0 9.9 22.4 27.1 70.3 49.5 164.8
08/05 06:50 -1.6 84 3.65 -3.9 4 6 1020 0 9.5 22.3 26.6 68.8 47.6 157.9
08/05 06:40 -2.1 83 3.48 -4.6 9 9 1020 0 9.2 22.1 26.0 67.4 45.6 151.0
08/05 06:30 -2 85 3.59 -4.2 7 9 1020 0 9.4 22.3 26.5 68.5 47.0 155.9
08/05 06:20 -2.1 84 3.52 -4.4 7 7 1019.9 0 9.3 22.2 26.2 67.9 46.1 152.8
08/05 06:10 -2 80 3.38 -5 0 0 1019.9 0 9.0 21.9 25.6 66.3 44.2 146.1
08/05 06:00 -1.9 82 3.49 -4.6 0 0 1019.7 0 9.2 22.1 26.0 67.3 45.6 151.0
08/05 05:50 -1 78 3.53 -4.3 0 0 1019.8 0 9.3 21.9 25.9 67.0 45.6 151.2
08/05 05:40 -1 79 3.58 -4.2 6 7 1019.9 0 9.4 22.0 26.1 67.5 46.3 153.5
08/05 05:30 -1.3 79 3.5 -4.5 9 13 1019.7 0 9.2 21.9 25.9 66.9 45.4 150.3
08/05 05:20 -1.1 77 3.46 -4.6 9 11 1019.5 0 9.1 21.8 25.6 66.3 44.8 148.1
08/05 05:10 -0.9 78 3.56 -4.2 6 7 1019.5 0 9.3 21.9 26.0 67.2 45.9 152.3
08/05 05:00 -0.8 76 3.49 -4.5 6 9 1019.5 0 9.2 21.8 25.6 66.4 45.0 148.9
08/05 04:50 -1.1 80 3.6 -4.1 7 9 1019.7 0 9.4 22.0 26.2 67.8 46.6 154.6
08/05 04:40 -1.3 79 3.5 -4.5 7 7 1019.7 0 9.2 21.9 25.9 66.9 45.4 150.3
08/05 04:30 -1.7 81 3.49 -4.5 7 9 1019.5 0 9.2 22.0 25.9 67.2 45.5 150.6
08/05 04:20 -2.6 85 3.44 -4.8 7 7 1019.7 0 9.1 22.2 26.0 67.4 45.4 150.0
08/05 04:10 -3 84 3.31 -5.3 0 0 1019.7 0 8.8 22.0 25.6 66.4 43.9 144.7
08/05 04:00 -3.2 77 2.99 -6.6 7 9 1019.6 0 8.2 21.6 24.4 63.1 39.7 130.1
08/05 03:50 -1.1 73 3.28 -5.3 7 9 1019.5 0 8.7 21.5 24.9 64.4 42.4 139.9
08/05 03:40 -0.4 73 3.45 -4.6 7 9 1019.5 0 9.1 21.6 25.4 65.6 44.2 146.3
08/05 03:30 -1 75 3.4 -4.9 7 9 1019.5 0 9.0 21.7 25.4 65.6 43.9 145.2
08/05 03:20 -1.2 77 3.44 -4.7 6 7 1019.4 0 9.1 21.8 25.6 66.2 44.5 147.3
08/05 03:10 -1.4 76 3.35 -5.1 7 7 1019.7 0 8.9 21.7 25.3 65.4 43.5 143.6
08/05 03:00 -0.6 74 3.44 -4.6 4 7 1019.4 0 9.1 21.7 25.4 65.7 44.2 146.2
08/05 02:50 -0.7 72 3.33 -5.1 0 0 1019.4 0 8.8 21.5 25.0 64.6 42.8 141.4
08/05 02:40 -0.9 73 3.33 -5.1 0 0 1019.5 0 8.8 21.6 25.1 64.8 43.0 141.8
08/05 02:30 -0.4 71 3.35 -5 6 9 1019.4 0 8.9 21.5 25.0 64.6 42.9 141.8
08/05 02:20 -1 74 3.35 -5 7 7 1019.5 0 8.9 21.6 25.2 65.1 43.3 142.9
08/05 02:10 -1 69 3.12 -6 4 6 1019.5 0 8.4 21.3 24.3 62.7 40.3 132.4
08/05 02:00 -0.6 68 3.17 -5.8 7 11 1019.5 0 8.5 21.2 24.3 62.9 40.7 134.0
08/05 01:50 0.4 66 3.29 -5.2 9 9 1019.5 0 8.7 21.2 24.5 63.3 41.7 137.7
08/05 01:40 0.4 66 3.29 -5.2 9 11 1019.5 0 8.7 21.2 24.5 63.3 41.7 137.7
08/05 01:30 1.3 62 3.29 -5.2 11 15 1019.6 0 8.7 21.0 24.2 62.6 41.3 136.2
08/05 01:20 1.2 63 3.32 -5 15 17 1019.5 0 8.7 21.1 24.4 63.0 41.7 137.7
08/05 01:10 0.9 64 3.3 -5.1 13 13 1019.5 0 8.7 21.1 24.4 63.0 41.6 137.3
08/05 01:00 1 63 3.27 -5.2 11 15 1019.5 0 8.6 21.0 24.2 62.6 41.2 135.8
08/05 00:50 1.3 60 3.18 -5.6 9 11 1019.4 0 8.4 20.8 23.8 61.5 39.9 131.3
08/05 00:40 1.6 59 3.19 -5.5 7 9 1019.5 0 8.5 20.8 23.8 61.4 39.9 131.3
08/05 00:20 1.2 58 3.06 -6.1 11 13 1019.7 0 8.2 20.7 23.4 60.4 38.5 126.2
08/05 00:10 1.6 57 3.09 -6 11 13 1019.9 0 8.2 20.6 23.4 60.4 38.6 126.9
08/05 00:00 2.1 55 3.08 -6 6 13 1019.8 0 8.2 20.5 23.2 59.9 38.3 125.7
07/05 23:50 2 55 3.06 -6.1 7 7 1019.9 0 8.2 20.5 23.2 59.8 38.1 125.0
07/05 23:40 1.5 56 3.01 -6.3 4 6 1019.9 0 8.1 20.5 23.1 59.7 37.7 123.6
07/05 23:30 2.1 54 3.02 -6.2 7 11 1019.8 0 8.1 20.4 23.0 59.3 37.5 123.1
07/05 23:20 2.5 53 3.05 -6.1 11 13 1019.8 0 8.1 20.4 23.0 59.3 37.7 123.8
07/05 23:10 2.5 55 3.16 -5.6 13 13 1019.8 0 8.4 20.5 23.4 60.4 39.1 128.5
07/05 23:00 2.2 54 3.04 -6.1 11 15 1019.7 0 8.1 20.4 23.0 59.4 37.7 123.8
07/05 22:50 2.6 53 3.07 -6 11 13 1019.7 0 8.2 20.4 23.0 59.4 37.9 124.5
07/05 22:40 2.5 53 3.05 -6.1 9 11 1019.7 0 8.1 20.4 23.0 59.3 37.7 123.8
07/05 22:30 3 51 3.04 -6.1 13 15 1019.6 0 8.1 20.2 22.8 58.8 37.3 122.6
07/05 22:20 4.2 48 3.1 -5.8 15 17 1019.8 0 8.2 20.1 22.7 58.5 37.5 123.3
07/05 22:10 3.9 49 3.1 -5.8 11 13 1019.8 0 8.2 20.1 22.8 58.8 37.6 123.8
07/05 22:00 4.3 48 3.12 -5.7 13 20 1019.7 0 8.2 20.1 22.7 58.6 37.7 124.0
07/05 21:50 4.5 49 3.22 -5.3 11 15 1019.8 0 8.4 20.2 23.1 59.5 38.8 127.9
07/05 21:40 4.9 49 3.31 -4.9 15 19 1019.8 0 8.6 20.2 23.3 60.0 39.7 131.1
07/05 21:30 4.6 49 3.24 -5.2 6 13 1019.8 0 8.5 20.2 23.1 59.6 39.0 128.6
07/05 21:20 4.8 51 3.42 -4.5 11 13 1019.7 0 8.9 20.4 23.7 61.2 41.1 135.9
07/05 21:10 5.3 50 3.47 -4.3 17 19 1019.7 0 9.0 20.4 23.7 61.3 41.4 137.2
07/05 21:00 5.6 51 3.61 -3.7 22 32 1019.4 0 9.2 20.5 24.1 62.4 42.9 142.6
07/05 20:50 6 51 3.7 -3.4 24 26 1019.3 0 9.4 20.5 24.3 62.9 43.8 145.7
07/05 20:40 6.2 53 3.9 -2.7 30 33 1019.3 0 9.8 20.8 25.0 64.7 46.1 153.8
07/05 20:30 5.7 57 4.06 -2.1 22 35 1019.4 0 10.2 21.1 25.8 66.7 48.3 161.6
07/05 20:20 6.3 60 4.44 -0.9 24 28 1019.3 0 11.0 21.6 27.0 70.0 52.6 176.9
07/05 20:10 6.7 61 4.64 -0.3 17 20 1019.4 0 11.4 21.8 27.6 71.7 54.8 184.7
07/05 20:00 6.8 72 5.51 2.1 19 28 1019.4 0 13.3 23.1 30.9 80.5 65.8 223.2
07/05 19:50 7.3 72 5.69 2.6 22 28 1019.2 0 13.6 23.2 31.4 81.9 67.7 229.9

Last Refresh: 08-May-2026 12:10:13

Bureau of Meteorology